Skip Navigation Links Skip Navigation Links

Current Weather

Chicago O'Hare Intl, Chicago

For information only: do not use for flight planning or navigation.
Latest weather
Observation time Saturday, April 20, 2019 7:51 AM CDT
Local time Saturday, April 20, 2019 8:00 AM CDT
Flight conditions Visual Meteorological Conditions
Winds
Wind direction North (10°)
Wind speed 21 mph
Wind gusting to 29 mph
Visibility 10 mi.
Sky condition
Ceiling unlimited
Cloud layer few clouds 12,000 ft.
Temperature 45°F
Dewpoint 25°F
Altimeter 29.83 in.Hg
Derived measurements
Relative humidity 45%
Wind chill 37°F
Density altitude -91 ft.
Sea-level pressure 29.84 in.Hg
Remarks
Automated weather observing station with precipitation discriminator.
METAR KORD 201251Z 01018G25KT 10SM FEW120 07/M04 A2983 RMK AO2 SLP105 T00721039

Settings

Location code

InnerDrive.Weather 4.0.6770.0 Release CLR 4.0.30319.42000
Copyright ©2018 Inner Drive Technology. All rights reserved. Portions Copyright ©1986-2018 David Braverman.

Find weather

Site navigation


Skip Navigation Links

Place info

Page info

PayPal - The safer, easier way to pay online!

Return home.

Copyright ©2019 Inner Drive Technology. Purveyors of fine, hand-crafted computer software. Page printed 2019-04-20T13:00:06 UTC.